Time;durP1;ratioP1;P1;durP2;ratioP2;P2;SDS_P1;SDS_P2;PMS_P1;PMS_P2;Temp;Humidity;BMP_temperature;BMP_pressure;BME280_temperature;BME280_humidity;BME280_pressure;Samples;Min_cycle;Max_cycle;Signal;HPM_P1;HPM_P2
2022/06/08 00:00:01;;;;;;;0.60;0.60;;;;;;;21.23;100.00;94917.22;5094913;28;20466;-68
2022/06/08 00:02:33;;;;;;;0.47;0.37;;;;;;;20.15;100.00;94754.22;5098633;28;20443;-68
2022/06/08 00:05:02;;;;;;;0.47;0.30;;;;;;;21.14;100.00;94905.81;5104715;28;20456;-66
2022/06/08 00:07:33;;;;;;;0.40;0.30;;;;;;;20.19;100.00;94750.47;5100126;28;20424;-67
2022/06/08 00:10:02;;;;;;;0.57;0.40;;;;;;;21.01;100.00;94906.97;5098960;28;20921;-67
2022/06/08 00:12:30;;;;;;;0.60;0.40;;;;;;;21.03;100.00;94902.03;5095347;28;20459;-67
2022/06/08 00:14:59;;;;;;;0.40;0.30;;;;;;;20.83;100.00;94868.00;5098298;28;20866;-67
2022/06/08 00:17:28;;;;;;;0.40;0.30;;;;;;;20.99;100.00;94894.97;5099044;28;20425;-68
2022/06/08 00:19:56;;;;;;;0.93;0.60;;;;;;;20.96;100.00;94890.28;5095198;28;20490;-68
2022/06/08 00:22:28;;;;;;;0.40;0.30;;;;;;;20.90;100.00;94895.13;5097625;28;20955;-67
2022/06/08 00:25:06;;;;;;;0.60;0.57;;;;;;;20.89;100.00;94896.28;5100342;28;20464;-67
2022/06/08 00:27:35;;;;;;;0.40;0.30;;;;;;;20.87;100.00;94896.59;5100265;28;20428;-66
2022/06/08 00:32:06;;;;;;;0.40;0.30;;;;;;;20.87;100.00;94899.28;5129335;27;20551;-65
2022/06/08 00:34:36;;;;;;;0.60;0.27;;;;;;;20.82;100.00;94893.38;5129699;27;20449;-65
2022/06/08 00:37:05;;;;;;;0.50;0.50;;;;;;;20.81;100.00;94889.13;5130216;27;20418;-65
2022/06/08 00:39:34;;;;;;;0.53;0.40;;;;;;;20.07;100.00;94806.25;5129909;27;20477;-65
2022/06/08 00:42:06;;;;;;;0.80;0.50;;;;;;;20.30;100.00;94836.13;5130097;27;21095;-65
2022/06/08 00:44:41;;;;;;;1.07;0.97;;;;;;;19.72;100.00;94741.47;5129714;27;20453;-66
2022/06/08 00:47:15;;;;;;;0.40;0.30;;;;;;;20.60;100.00;94880.44;5129399;27;20438;-66
2022/06/08 00:49:49;;;;;;;0.60;0.40;;;;;;;20.60;100.00;94881.22;5129435;27;20925;-66
2022/06/08 00:52:18;;;;;;;0.50;0.30;;;;;;;20.51;100.00;94882.50;5129857;27;20456;-66
2022/06/08 00:54:51;;;;;;;0.70;0.40;;;;;;;20.53;100.00;94885.63;5130012;27;20427;-66
2022/06/08 00:57:25;;;;;;;0.50;0.40;;;;;;;19.91;100.00;94803.47;5130037;27;20443;-65
2022/06/08 01:00:01;;;;;;;0.47;0.37;;;;;;;20.29;100.00;94891.88;5129561;27;21009;-66
2022/06/08 01:02:31;;;;;;;0.70;0.50;;;;;;;20.47;100.00;94895.06;5129512;27;20473;-65
2022/06/08 01:05:25;;;;;;;0.50;0.30;;;;;;;20.39;100.00;94888.69;5129522;27;20877;-65
2022/06/08 01:07:57;;;;;;;0.60;0.47;;;;;;;20.24;100.00;94881.34;5129525;27;20902;-65
2022/06/08 01:10:27;;;;;;;0.50;0.40;;;;;;;20.30;100.00;94887.28;5129647;27;20494;-65
2022/06/08 01:13:01;;;;;;;0.50;0.50;;;;;;;20.20;100.00;94877.75;5129454;27;20465;-65
2022/06/08 01:15:30;;;;;;;0.50;0.50;;;;;;;19.34;100.00;94784.84;5128744;28;20470;-65
2022/06/08 01:18:00;;;;;;;1.43;1.43;;;;;;;20.09;100.00;94884.69;5130075;27;20457;-65
2022/06/08 01:20:28;;;;;;;0.60;0.40;;;;;;;20.18;100.00;94890.75;5129264;27;20458;-65
2022/06/08 01:22:59;;;;;;;0.70;0.70;;;;;;;20.06;100.00;94886.16;5129161;27;20423;-65
2022/06/08 01:25:34;;;;;;;0.93;0.93;;;;;;;19.38;100.00;94777.69;5129346;27;20466;-65
2022/06/08 01:28:13;;;;;;;1.00;0.80;;;;;;;19.10;100.00;94723.03;5127987;28;21119;-65
2022/06/08 01:30:52;;;;;;;0.97;0.97;;;;;;;20.03;100.00;94886.06;5128840;27;20513;-65
2022/06/08 01:33:48;;;;;;;0.67;0.40;;;;;;;19.95;100.00;94879.69;5129250;27;20957;-66
2022/06/08 01:36:39;;;;;;;1.53;0.63;;;;;;;20.03;100.00;94891.44;5129072;27;20995;-66
2022/06/08 01:39:17;;;;;;;0.70;0.63;;;;;;;20.03;100.00;94892.25;5129279;27;20502;-66
2022/06/08 01:42:24;;;;;;;0.60;0.53;;;;;;;19.73;100.00;94853.28;5134379;27;20431;-65
2022/06/08 01:48:04;;;;;;;0.60;0.53;;;;;;;18.97;100.00;94748.34;5124952;27;20446;-66
2022/06/08 01:50:50;;;;;;;0.40;0.20;;;;;;;19.45;100.00;94817.44;5120007;28;20981;-65
2022/06/08 01:53:31;;;;;;;0.50;0.40;;;;;;;19.01;100.00;94741.19;5124391;27;20458;-66
2022/06/08 01:56:09;;;;;;;0.60;0.30;;;;;;;19.81;100.00;94851.59;5129166;28;20438;-66
2022/06/08 01:58:45;;;;;;;0.40;0.30;;;;;;;19.88;100.00;94868.72;5119280;28;20799;-66
2022/06/08 02:01:20;;;;;;;0.63;0.40;;;;;;;19.81;100.00;94895.38;5115063;28;20837;-66
2022/06/08 02:03:59;;;;;;;0.50;0.40;;;;;;;19.42;100.00;94869.97;5115051;28;20416;-67
2022/06/08 02:06:38;;;;;;;0.50;0.30;;;;;;;19.63;100.00;94892.13;5115177;28;20494;-66
2022/06/08 02:09:12;;;;;;;0.50;0.30;;;;;;;19.50;100.00;94841.41;5114951;28;20469;-66
2022/06/08 02:11:50;;;;;;;0.40;0.20;;;;;;;19.78;100.00;94888.00;5115090;28;20558;-66
2022/06/08 02:14:24;;;;;;;0.40;0.27;;;;;;;19.44;100.00;94853.50;5114904;28;20420;-65
2022/06/08 02:17:03;;;;;;;0.40;0.23;;;;;;;19.78;100.00;94884.53;5119687;28;20460;-65
2022/06/08 02:19:36;;;;;;;0.70;0.60;;;;;;;19.76;100.00;94884.84;5121235;28;20749;-65
2022/06/08 02:22:10;;;;;;;0.50;0.40;;;;;;;19.00;100.00;94771.84;5114942;28;20420;-66
2022/06/08 02:24:42;;;;;;;0.40;0.30;;;;;;;19.63;100.00;94869.88;5114377;28;20447;-65
2022/06/08 02:27:17;;;;;;;0.40;0.30;;;;;;;19.59;100.00;94856.31;5114600;28;20435;-65
2022/06/08 02:29:51;;;;;;;1.50;0.57;;;;;;;19.84;100.00;94888.53;5114168;28;20447;-65
2022/06/08 02:35:14;;;;;;;0.40;0.30;;;;;;;19.83;100.00;94895.84;5114459;28;20480;-66
2022/06/08 02:37:48;;;;;;;0.40;0.30;;;;;;;19.74;100.00;94903.22;5114287;28;20519;-66
2022/06/08 02:40:22;;;;;;;0.40;0.30;;;;;;;19.75;100.00;94896.75;5114108;28;20427;-66
2022/06/08 02:42:57;;;;;;;0.47;0.37;;;;;;;19.77;100.00;94904.47;5114198;28;20510;-65
2022/06/08 02:45:30;;;;;;;0.50;0.30;;;;;;;19.80;100.00;94898.41;5114413;27;20430;-65
2022/06/08 02:48:03;;;;;;;0.50;0.30;;;;;;;18.29;100.00;94694.31;5114156;28;20459;-65
2022/06/08 02:50:32;;;;;;;0.40;0.30;;;;;;;19.02;100.00;94807.97;5113521;28;20878;-65
2022/06/08 02:53:10;;;;;;;0.40;0.30;;;;;;;19.34;100.00;94904.97;5113439;28;20507;-65
2022/06/08 02:55:49;;;;;;;0.60;0.60;;;;;;;19.33;100.00;94908.75;5112859;28;20474;-65
2022/06/08 02:58:26;;;;;;;1.10;1.00;;;;;;;19.31;100.00;94909.13;5114188;28;20467;-65
2022/06/08 03:01:04;;;;;;;0.40;0.30;;;;;;;17.99;100.00;94778.69;5113666;28;20427;-65
2022/06/08 03:03:40;;;;;;;0.73;0.57;;;;;;;18.66;100.00;94919.88;5112869;28;20521;-65
2022/06/08 03:06:15;;;;;;;0.70;0.50;;;;;;;18.10;100.00;94908.63;5113614;28;20844;-65
2022/06/08 03:08:53;;;;;;;0.80;0.80;;;;;;;17.34;100.00;94751.72;5113517;27;20431;-65
2022/06/08 03:11:24;;;;;;;0.63;0.63;;;;;;;18.79;100.00;94919.63;5113446;28;20498;-65
2022/06/08 03:13:57;;;;;;;0.43;0.37;;;;;;;18.66;100.00;94926.06;5113431;28;20423;-65
2022/06/08 03:16:31;;;;;;;2.00;0.67;;;;;;;18.88;100.00;94923.00;5112740;28;20505;-65
2022/06/08 03:18:59;;;;;;;0.60;0.60;;;;;;;19.12;100.00;94921.50;5113382;28;20927;-65
2022/06/08 03:21:28;;;;;;;0.70;0.30;;;;;;;18.45;100.00;94807.16;5113572;28;20429;-65
2022/06/08 03:23:57;;;;;;;0.50;0.30;;;;;;;19.20;100.00;94931.38;5113474;28;20530;-65
2022/06/08 03:26:27;;;;;;;0.50;0.30;;;;;;;19.32;100.00;94921.44;5113513;28;20627;-66
2022/06/08 03:28:57;;;;;;;0.50;0.30;;;;;;;19.51;100.00;94934.34;5113485;28;20542;-65
2022/06/08 03:31:27;;;;;;;0.60;0.60;;;;;;;19.68;100.00;94931.47;5112834;28;20514;-66
2022/06/08 03:33:56;;;;;;;0.40;0.30;;;;;;;19.33;100.00;94928.38;5113122;28;20424;-66
2022/06/08 03:36:25;;;;;;;2.20;0.60;;;;;;;19.47;100.00;94928.09;5113098;28;20431;-66
2022/06/08 03:38:53;;;;;;;0.60;0.60;;;;;;;19.64;100.00;94923.28;5112953;28;20880;-66
2022/06/08 03:41:27;;;;;;;0.60;0.60;;;;;;;19.22;100.00;94915.72;5112197;28;20427;-65
2022/06/08 03:43:57;;;;;;;1.63;0.60;;;;;;;19.46;100.00;94927.31;5113366;28;20459;-65
2022/06/08 03:46:27;;;;;;;0.60;0.37;;;;;;;19.44;100.00;94928.75;5112460;28;20463;-65
2022/06/08 03:48:57;;;;;;;0.80;0.50;;;;;;;19.58;100.00;94918.50;5113069;28;20423;-64
2022/06/08 03:51:25;;;;;;;0.50;0.30;;;;;;;19.72;100.00;94940.44;5113098;28;20459;-65
2022/06/08 03:54:01;;;;;;;0.50;0.37;;;;;;;19.87;100.00;94915.56;5112710;28;20936;-65
2022/06/08 03:56:35;;;;;;;0.50;0.30;;;;;;;19.89;100.00;94917.91;5112998;28;20919;-65
2022/06/08 03:59:05;;;;;;;0.40;0.20;;;;;;;20.00;100.00;94919.81;5113163;28;20471;-65
2022/06/08 04:01:34;;;;;;;0.40;0.40;;;;;;;19.86;100.00;94905.91;5114133;28;20469;-64
2022/06/08 04:04:03;;;;;;;0.73;0.73;;;;;;;19.91;100.00;94921.81;5113480;28;20428;-64
2022/06/08 04:06:32;;;;;;;0.50;0.30;;;;;;;20.03;100.00;94921.03;5113060;28;20435;-64
2022/06/08 04:09:02;;;;;;;0.50;0.40;;;;;;;19.70;100.00;94915.78;5113235;28;20458;-64
2022/06/08 04:11:32;;;;;;;0.50;0.43;;;;;;;19.78;100.00;94914.91;5112020;27;20476;-63
2022/06/08 04:14:02;;;;;;;0.50;0.30;;;;;;;19.28;100.00;94817.63;5112744;28;20419;-63
2022/06/08 04:16:35;;;;;;;0.50;0.50;;;;;;;20.01;100.00;94917.91;5112177;28;20459;-63
2022/06/08 04:19:03;;;;;;;0.50;0.30;;;;;;;20.11;100.00;94917.47;5112490;28;20986;-63
2022/06/08 04:21:32;;;;;;;0.40;0.30;;;;;;;20.20;100.00;94913.50;5112642;28;20462;-63
2022/06/08 04:24:01;;;;;;;0.73;0.73;;;;;;;19.98;100.00;94891.69;5112582;28;20459;-62
2022/06/08 04:26:30;;;;;;;0.50;0.40;;;;;;;20.19;100.00;94914.63;5112585;28;20803;-63
2022/06/08 04:28:59;;;;;;;0.83;0.40;;;;;;;20.19;100.00;94909.25;5128579;28;20438;-63
2022/06/08 04:31:27;;;;;;;0.40;0.30;;;;;;;19.91;100.00;94843.06;5117577;28;20467;-62
2022/06/08 04:33:57;;;;;;;0.70;0.60;;;;;;;20.27;100.00;94918.34;5113340;28;20544;-61
2022/06/08 04:36:26;;;;;;;0.80;0.80;;;;;;;20.46;100.00;94917.75;5112448;28;20436;-61
2022/06/08 04:38:55;;;;;;;0.70;0.40;;;;;;;20.46;100.00;94913.16;5112292;28;20423;-61
2022/06/08 04:41:23;;;;;;;0.40;0.30;;;;;;;20.34;100.00;94913.16;5111916;28;20522;-61
2022/06/08 04:44:01;;;;;;;0.70;0.70;;;;;;;19.90;100.00;94906.81;5112204;28;20908;-60
2022/06/08 04:46:30;;;;;;;0.50;0.40;;;;;;;19.97;100.00;94860.50;5112141;28;20423;-60
2022/06/08 04:48:59;;;;;;;0.43;0.30;;;;;;;20.02;100.00;94858.38;5111895;28;20765;-60
2022/06/08 04:51:28;;;;;;;0.40;0.30;;;;;;;20.47;100.00;94916.59;5112532;28;20478;-60
2022/06/08 04:53:58;;;;;;;0.50;0.30;;;;;;;20.45;100.00;94916.94;5112112;28;21033;-60
2022/06/08 04:56:27;;;;;;;0.40;0.40;;;;;;;20.64;100.00;94922.53;5111944;28;20435;-60
2022/06/08 04:58:56;;;;;;;0.60;0.60;;;;;;;20.75;100.00;94915.50;5112115;28;20420;-60
2022/06/08 05:01:25;;;;;;;0.70;0.40;;;;;;;20.53;100.00;94874.88;5111491;28;20475;-60
2022/06/08 05:03:54;;;;;;;0.60;0.40;;;;;;;20.72;100.00;94910.81;5112294;28;20430;-60
2022/06/08 05:06:24;;;;;;;0.60;0.40;;;;;;;20.98;100.00;94915.75;5111931;28;20476;-57
2022/06/08 05:08:52;;;;;;;0.50;0.40;;;;;;;21.11;100.00;94903.03;5112363;28;20795;-60
2022/06/08 05:11:21;;;;;;;0.50;0.40;;;;;;;21.24;100.00;94913.41;5112043;28;20467;-60
2022/06/08 05:13:50;;;;;;;0.50;0.30;;;;;;;20.96;100.00;94853.34;5111937;28;20510;-59
2022/06/08 05:16:19;;;;;;;0.40;0.30;;;;;;;21.59;100.00;94913.50;5112226;28;20497;-57
2022/06/08 05:18:47;;;;;;;0.50;0.40;;;;;;;21.69;100.00;94912.19;5116046;28;20433;-57
2022/06/08 05:21:16;;;;;;;0.90;0.50;;;;;;;21.61;100.00;94919.31;5115830;28;20953;-58
2022/06/08 05:23:46;;;;;;;0.50;0.50;;;;;;;21.82;100.00;94922.56;5115833;28;20862;-57
2022/06/08 05:26:15;;;;;;;0.50;0.43;;;;;;;22.22;100.00;94921.56;5115330;28;20515;-58
2022/06/08 05:28:44;;;;;;;0.63;0.47;;;;;;;22.31;100.00;94917.53;5115614;28;20970;-57
2022/06/08 05:31:13;;;;;;;0.93;0.93;;;;;;;22.32;100.00;94911.00;5115468;28;20578;-58
2022/06/08 05:33:42;;;;;;;4.87;1.30;;;;;;;21.35;100.00;94851.69;5114508;28;20983;-57
2022/06/08 05:36:12;;;;;;;2.20;0.70;;;;;;;21.96;100.00;94911.34;5115496;28;20431;-57
2022/06/08 05:38:40;;;;;;;1.33;1.33;;;;;;;21.19;100.00;94912.88;5115499;28;20475;-57
2022/06/08 05:41:10;;;;;;;0.77;0.50;;;;;;;21.78;100.00;94883.13;5115557;28;20484;-57
2022/06/08 05:43:38;;;;;;;0.70;0.43;;;;;;;22.41;100.00;94908.88;5112315;28;20489;-57
2022/06/08 05:46:06;;;;;;;0.70;0.70;;;;;;;22.60;100.00;94911.59;5112899;28;20424;-57
2022/06/08 05:48:35;;;;;;;0.70;0.70;;;;;;;21.88;100.00;94906.91;5112947;28;20463;-57
2022/06/08 05:51:03;;;;;;;0.50;0.40;;;;;;;22.04;100.00;94907.66;5113110;28;20507;-57
2022/06/08 05:53:33;;;;;;;1.13;0.40;;;;;;;22.32;100.00;94916.38;5113033;28;20538;-57
2022/06/08 05:56:02;;;;;;;1.10;0.50;;;;;;;22.13;100.00;94887.47;5112716;28;20609;-57
2022/06/08 05:58:32;;;;;;;0.70;0.70;;;;;;;22.36;100.00;94914.56;5112772;28;20518;-57
2022/06/08 06:01:00;;;;;;;0.53;0.50;;;;;;;22.15;100.00;94911.38;5112752;28;21121;-57
2022/06/08 06:03:28;;;;;;;0.70;0.70;;;;;;;22.44;100.00;94910.84;5112757;28;20510;-57
2022/06/08 06:05:57;;;;;;;0.70;0.70;;;;;;;23.06;100.00;94904.44;5112523;28;20515;-57
2022/06/08 06:08:26;;;;;;;0.60;0.40;;;;;;;23.48;97.13;94899.03;5113033;28;20481;-57
2022/06/08 06:10:54;;;;;;;0.67;0.67;;;;;;;23.82;95.50;94876.41;5113601;28;20466;-57
2022/06/08 06:13:23;;;;;;;0.40;0.30;;;;;;;23.80;93.95;94886.81;5114755;28;20493;-57
2022/06/08 06:15:54;;;;;;;0.57;0.47;;;;;;;24.00;90.63;94895.63;5114919;28;20506;-57
2022/06/08 06:18:22;;;;;;;0.57;0.40;;;;;;;24.22;89.55;94899.44;5114519;28;20415;-57
2022/06/08 06:20:51;;;;;;;0.80;0.80;;;;;;;24.26;87.96;94895.63;5114711;28;20824;-57
2022/06/08 06:23:20;;;;;;;0.80;0.80;;;;;;;24.40;90.19;94885.00;5114383;28;20416;-57
2022/06/08 06:25:48;;;;;;;0.50;0.40;;;;;;;24.25;88.79;94890.59;5114239;28;20489;-57
2022/06/08 06:28:17;;;;;;;0.77;0.67;;;;;;;24.74;80.86;94898.59;5114528;28;20420;-57
2022/06/08 06:30:45;;;;;;;1.30;0.60;;;;;;;24.85;77.68;94897.59;5114279;28;21036;-56
2022/06/08 06:33:16;;;;;;;0.50;0.40;;;;;;;25.00;78.69;94883.03;5114124;28;20510;-57
2022/06/08 06:35:44;;;;;;;0.77;0.77;;;;;;;24.29;80.14;94885.97;5114459;28;20435;-57
2022/06/08 06:38:13;;;;;;;0.50;0.50;;;;;;;24.63;82.79;94871.34;5114201;28;20848;-57
2022/06/08 06:40:41;;;;;;;0.50;0.50;;;;;;;24.49;85.07;94880.06;5113710;28;20470;-57
2022/06/08 06:43:12;;;;;;;0.40;0.30;;;;;;;24.56;84.51;94879.41;5113950;28;20518;-57
2022/06/08 06:45:41;;;;;;;0.60;0.40;;;;;;;24.85;80.96;94867.75;5114136;28;20476;-57
2022/06/08 06:48:09;;;;;;;1.13;1.13;;;;;;;24.64;76.93;94883.75;5114542;28;20909;-57
2022/06/08 06:50:39;;;;;;;0.60;0.60;;;;;;;25.10;70.47;94878.88;5113989;28;20447;-57
2022/06/08 06:53:07;;;;;;;4.67;0.43;;;;;;;25.94;67.53;94876.16;5114489;28;20525;-57
2022/06/08 06:55:36;;;;;;;0.80;0.60;;;;;;;25.58;70.82;94874.31;5114009;28;20458;-58
2022/06/08 06:58:04;;;;;;;1.00;0.63;;;;;;;25.83;68.50;94861.75;5114272;28;20789;-58
2022/06/08 07:00:33;;;;;;;0.50;0.40;;;;;;;25.95;65.90;94872.31;5113964;28;20515;-59
2022/06/08 07:03:01;;;;;;;1.17;0.63;;;;;;;25.76;67.68;94875.25;5114204;28;20428;-59
2022/06/08 07:05:32;;;;;;;0.50;0.40;;;;;;;26.67;64.05;94855.25;5113910;28;20447;-59
2022/06/08 07:08:02;;;;;;;0.50;0.30;;;;;;;27.30;57.23;94855.47;5113699;28;20923;-60
2022/06/08 07:10:30;;;;;;;0.40;0.40;;;;;;;27.37;54.67;94855.50;5113732;27;20510;-60
2022/06/08 07:12:59;;;;;;;0.50;0.50;;;;;;;26.98;55.17;94806.44;5114008;28;20416;-61
2022/06/08 07:15:28;;;;;;;1.03;0.40;;;;;;;27.55;53.56;94853.56;5113515;28;20524;-60
2022/06/08 07:18:02;;;;;;;0.60;0.60;;;;;;;28.35;51.86;94848.47;5117432;28;20471;-60
2022/06/08 07:20:30;;;;;;;0.50;0.30;;;;;;;28.32;50.15;94846.53;5114165;28;20862;-60
2022/06/08 07:22:58;;;;;;;0.50;0.40;;;;;;;27.75;48.41;94847.75;5113798;28;20880;-60
2022/06/08 07:25:28;;;;;;;0.90;0.60;;;;;;;26.93;55.82;94852.28;5113528;28;20422;-60
2022/06/08 07:27:57;;;;;;;0.50;0.50;;;;;;;26.60;59.55;94812.53;5113738;28;20447;-60
2022/06/08 07:30:25;;;;;;;0.50;0.33;;;;;;;27.60;52.79;94823.25;5112970;28;20553;-60
2022/06/08 07:32:54;;;;;;;0.50;0.40;;;;;;;26.69;54.53;94831.19;5113344;28;20939;-60
2022/06/08 07:35:22;;;;;;;0.50;0.33;;;;;;;27.13;54.45;94830.94;5113334;28;20516;-60
2022/06/08 07:37:50;;;;;;;4.10;0.60;;;;;;;28.07;50.36;94832.19;5113261;28;20428;-60
2022/06/08 07:40:19;;;;;;;1.50;0.50;;;;;;;27.27;52.10;94834.50;5112698;28;20481;-60
2022/06/08 07:42:48;;;;;;;0.40;0.30;;;;;;;27.95;52.38;94810.78;5113425;28;20842;-60
2022/06/08 07:45:17;;;;;;;0.40;0.30;;;;;;;28.63;49.70;94823.88;5112980;27;20945;-60
2022/06/08 07:50:31;;;;;;;0.40;0.33;;;;;;;28.47;53.17;94815.31;5112977;28;20907;-59
2022/06/08 07:53:00;;;;;;;0.50;0.50;;;;;;;28.49;48.91;94812.97;5112798;28;20426;-59
2022/06/08 07:55:29;;;;;;;0.50;0.30;;;;;;;29.42;45.93;94822.28;5113023;28;20550;-59
2022/06/08 07:57:58;;;;;;;0.50;0.37;;;;;;;29.74;45.01;94802.91;5112764;27;20427;-59
2022/06/08 08:00:28;;;;;;;1.33;0.73;;;;;;;29.02;47.31;94790.16;5112763;28;20456;-59
2022/06/08 08:02:57;;;;;;;0.63;0.47;;;;;;;29.93;48.13;94805.88;5112659;28;20930;-59
2022/06/08 08:05:26;;;;;;;0.40;0.30;;;;;;;29.09;46.02;94804.53;5112991;28;20423;-59
2022/06/08 08:07:55;;;;;;;0.40;0.40;;;;;;;29.31;46.09;94802.47;5112563;28;20451;-59
2022/06/08 08:10:26;;;;;;;0.60;0.60;;;;;;;28.46;47.29;94800.16;5112550;28;20515;-59
2022/06/08 08:12:55;;;;;;;1.47;0.70;;;;;;;28.48;49.09;94767.81;5112851;28;20415;-59
2022/06/08 08:15:26;;;;;;;0.60;0.47;;;;;;;29.44;45.94;94798.88;5112793;28;20473;-59
2022/06/08 08:17:55;;;;;;;3.90;0.60;;;;;;;30.08;47.11;94801.81;5112662;28;20494;-59
2022/06/08 08:20:25;;;;;;;0.70;0.70;;;;;;;29.70;45.81;94804.91;5112821;28;20534;-59
2022/06/08 08:22:54;;;;;;;0.40;0.30;;;;;;;30.09;45.00;94800.63;5112633;28;20452;-59
2022/06/08 08:25:23;;;;;;;0.70;0.70;;;;;;;28.74;49.71;94802.00;5112377;28;20879;-59
2022/06/08 08:27:52;;;;;;;0.47;0.47;;;;;;;28.74;46.09;94704.56;5112484;28;20502;-58
2022/06/08 08:30:24;;;;;;;0.40;0.30;;;;;;;29.46;47.98;94820.28;5112237;28;20475;-58
2022/06/08 08:32:54;;;;;;;0.60;0.43;;;;;;;30.30;45.94;94793.41;5112623;28;20428;-58
2022/06/08 08:35:23;;;;;;;0.40;0.30;;;;;;;30.46;45.16;94807.31;5112238;28;21005;-58
2022/06/08 08:37:53;;;;;;;0.50;0.40;;;;;;;30.71;44.26;94813.25;5112654;28;20446;-58
2022/06/08 08:40:30;;;;;;;0.67;0.60;;;;;;;30.59;44.68;94802.84;5112276;28;20459;-58
2022/06/08 08:42:59;;;;;;;0.53;0.43;;;;;;;30.91;42.61;94808.72;5112325;28;20480;-58
2022/06/08 08:45:33;;;;;;;0.40;0.40;;;;;;;30.86;41.96;94800.94;5112253;28;20456;-58
2022/06/08 08:48:06;;;;;;;0.40;0.30;;;;;;;31.43;41.77;94800.91;5112593;28;20427;-58
2022/06/08 08:50:41;;;;;;;0.53;0.53;;;;;;;31.50;40.53;94800.09;5112240;28;20411;-58
2022/06/08 08:53:22;;;;;;;0.50;0.40;;;;;;;30.66;43.46;94808.25;5115143;28;20449;-58
2022/06/08 08:55:58;;;;;;;0.63;0.63;;;;;;;30.84;44.63;94789.63;5116237;28;21145;-58
2022/06/08 08:58:29;;;;;;;0.67;0.67;;;;;;;31.32;43.78;94727.13;5115848;28;20423;-58
2022/06/08 09:01:00;;;;;;;0.50;0.40;;;;;;;31.81;42.01;94796.03;5116019;28;20840;-57
2022/06/08 09:03:34;;;;;;;0.50;0.50;;;;;;;32.38;41.50;94785.63;5116169;28;20424;-58
2022/06/08 09:06:11;;;;;;;0.50;0.47;;;;;;;33.02;40.09;94779.59;5116468;28;20423;-58
2022/06/08 09:08:41;;;;;;;0.40;0.30;;;;;;;33.18;42.69;94771.41;5116099;28;20517;-57
2022/06/08 09:11:16;;;;;;;0.60;0.40;;;;;;;33.32;39.93;94770.28;5116268;28;20539;-57
2022/06/08 09:13:51;;;;;;;0.60;0.60;;;;;;;32.21;43.37;94764.78;5116161;28;20423;-58
2022/06/08 09:16:39;;;;;;;0.40;0.40;;;;;;;31.12;45.34;94761.13;5115897;28;20509;-57
2022/06/08 09:19:31;;;;;;;1.97;0.53;;;;;;;31.35;46.89;94752.91;5116251;27;20505;-57
2022/06/08 09:22:22;;;;;;;0.67;0.60;;;;;;;31.81;43.98;94747.47;5115898;28;20431;-57
2022/06/08 09:24:55;;;;;;;0.90;0.67;;;;;;;31.45;45.02;94746.53;5115779;28;20502;-57
2022/06/08 09:27:27;;;;;;;0.50;0.50;;;;;;;31.67;45.51;94739.50;5116112;28;20457;-57
2022/06/08 09:30:10;;;;;;;0.77;0.50;;;;;;;32.05;44.55;94744.72;5115799;28;20846;-57
2022/06/08 09:32:44;;;;;;;0.60;0.50;;;;;;;32.32;44.42;94726.94;5115559;28;20466;-57
2022/06/08 09:35:26;;;;;;;0.83;0.83;;;;;;;32.06;43.63;94732.56;5114361;28;20461;-56
2022/06/08 09:37:57;;;;;;;0.53;0.53;;;;;;;31.86;43.08;94727.03;5115496;28;20906;-56
2022/06/08 09:40:37;;;;;;;0.80;0.80;;;;;;;31.38;43.30;94730.19;5115803;28;20510;-56
2022/06/08 09:43:25;;;;;;;0.50;0.40;;;;;;;31.82;44.96;94720.84;5115451;28;20502;-56
2022/06/08 09:45:55;;;;;;;0.70;0.50;;;;;;;32.26;43.32;94720.41;5115337;28;21005;-56
2022/06/08 09:51:59;;;;;;;0.40;0.40;;;;;;;31.60;42.05;94712.22;5115217;28;20618;-56
2022/06/08 09:54:36;;;;;;;0.40;0.40;;;;;;;32.28;42.91;94715.28;5115470;28;20470;-56
2022/06/08 09:57:27;;;;;;;0.63;0.60;;;;;;;32.48;41.76;94715.28;5115332;28;20442;-56
2022/06/08 10:00:06;;;;;;;0.60;0.60;;;;;;;32.16;42.05;94676.72;5115121;28;20449;-56
2022/06/08 10:02:46;;;;;;;0.80;0.80;;;;;;;32.20;39.68;94707.63;5114498;28;20422;-57
2022/06/08 10:05:26;;;;;;;0.47;0.40;;;;;;;31.32;38.09;94704.47;5115119;28;20866;-57
2022/06/08 10:08:11;;;;;;;1.00;0.70;;;;;;;31.46;41.74;94700.75;5115119;28;20844;-59
2022/06/08 10:10:45;;;;;;;0.60;0.53;;;;;;;30.90;42.75;94703.16;5115032;28;20415;-60
2022/06/08 10:13:20;;;;;;;1.00;1.00;;;;;;;30.50;42.55;94676.75;5114382;28;20938;-60
2022/06/08 10:15:50;;;;;;;0.70;0.70;;;;;;;29.44;43.14;94699.78;5112933;28;20462;-60
2022/06/08 10:18:24;;;;;;;0.67;0.67;;;;;;;28.31;43.34;94624.97;5113944;28;20423;-61
2022/06/08 10:20:55;;;;;;;0.73;0.50;;;;;;;29.01;44.69;94693.09;5113398;28;20571;-60
2022/06/08 10:23:32;;;;;;;2.43;0.83;;;;;;;29.60;44.26;94697.28;5113660;27;20432;-60
2022/06/08 10:26:05;;;;;;;0.50;0.40;;;;;;;28.59;47.08;94694.91;5114181;28;20516;-60
2022/06/08 10:28:39;;;;;;;0.50;0.50;;;;;;;28.85;47.22;94688.16;5114529;28;20935;-60
2022/06/08 10:31:15;;;;;;;0.40;0.40;;;;;;;27.96;50.25;94692.44;5114327;28;20917;-60
2022/06/08 10:33:52;;;;;;;0.70;0.70;;;;;;;27.36;50.96;94659.91;5114370;28;20427;-58
2022/06/08 10:36:21;;;;;;;1.47;1.37;;;;;;;27.86;50.35;94704.16;5113742;28;20590;-59
2022/06/08 10:38:51;;;;;;;1.63;0.93;;;;;;;27.21;51.99;94688.31;5113245;28;20481;-58
2022/06/08 10:44:50;;;;;;;0.60;0.60;;;;;;;27.78;49.22;94665.28;5114191;28;20442;-59
2022/06/08 10:47:28;;;;;;;1.77;0.60;;;;;;;28.50;47.83;94685.63;5113296;28;20447;-59
2022/06/08 10:50:16;;;;;;;1.20;1.20;;;;;;;28.89;45.00;94681.47;5113440;28;20525;-59
2022/06/08 10:52:46;;;;;;;0.80;0.80;;;;;;;29.37;44.80;94661.63;5112815;28;20868;-59
2022/06/08 10:55:39;;;;;;;0.50;0.40;;;;;;;29.48;43.09;94659.56;5113842;28;20911;-59
2022/06/08 10:58:15;;;;;;;0.40;0.30;;;;;;;29.72;41.62;94658.53;5112791;28;21045;-59
2022/06/08 11:01:21;;;;;;;0.70;0.70;;;;;;;29.12;45.17;94579.19;5113640;28;20983;-59
2022/06/08 11:04:00;;;;;;;0.73;0.73;;;;;;;29.97;41.89;94650.84;5112552;28;20423;-59
2022/06/08 11:07:00;;;;;;;0.60;0.43;;;;;;;29.73;42.46;94649.16;5114110;28;20409;-59
2022/06/08 11:09:45;;;;;;;0.40;0.40;;;;;;;30.45;40.95;94638.94;5113552;28;20463;-59
2022/06/08 11:12:34;;;;;;;0.40;0.30;;;;;;;30.59;40.87;94641.44;5112636;28;20439;-58
2022/06/08 11:15:12;;;;;;;0.40;0.40;;;;;;;29.94;42.05;94607.94;5111776;28;20419;-58
2022/06/08 11:17:49;;;;;;;0.40;0.30;;;;;;;29.38;42.92;94545.78;5113881;28;20431;-58
2022/06/08 11:20:22;;;;;;;0.60;0.60;;;;;;;29.55;44.66;94592.00;5113602;28;20502;-58
2022/06/08 11:22:56;;;;;;;0.67;0.57;;;;;;;29.76;46.21;94625.69;5113214;28;20478;-59
2022/06/08 11:25:31;;;;;;;0.60;0.60;;;;;;;29.60;44.15;94590.75;5112230;28;20488;-58
2022/06/08 11:28:30;;;;;;;0.60;0.60;;;;;;;29.92;44.67;94629.44;5112667;27;20996;-58
2022/06/08 11:31:01;;;;;;;0.60;0.40;;;;;;;29.98;42.97;94561.47;5112475;28;20467;-59
2022/06/08 11:33:52;;;;;;;0.40;0.30;;;;;;;30.36;40.54;94616.81;5112653;28;20428;-58
2022/06/08 11:36:54;;;;;;;0.53;0.53;;;;;;;30.24;41.45;94611.84;5113193;28;20475;-59
2022/06/08 11:39:30;;;;;;;0.70;0.57;;;;;;;29.88;43.01;94609.56;5112900;27;20455;-59
2022/06/08 11:42:12;;;;;;;0.63;0.50;;;;;;;29.92;43.54;94604.06;5112105;28;20450;-58
2022/06/08 11:44:49;;;;;;;1.20;0.80;;;;;;;29.64;46.25;94605.16;5112639;28;20794;-58
2022/06/08 11:47:26;;;;;;;0.60;0.50;;;;;;;29.54;46.29;94604.09;5113231;28;20457;-59
2022/06/08 11:49:57;;;;;;;0.47;0.40;;;;;;;29.67;49.77;94617.22;5113081;28;20431;-58
2022/06/08 11:52:35;;;;;;;0.93;0.93;;;;;;;29.50;50.45;94625.19;5113209;28;20427;-58
2022/06/08 11:55:12;;;;;;;0.87;0.83;;;;;;;29.67;46.24;94601.63;5113053;28;20922;-57
2022/06/08 11:57:44;;;;;;;0.80;0.80;;;;;;;28.44;50.93;94636.19;5112618;28;20557;-58
2022/06/08 12:00:22;;;;;;;0.60;0.60;;;;;;;27.80;54.37;94578.53;5112802;28;20515;-58
2022/06/08 12:02:55;;;;;;;0.80;0.70;;;;;;;28.24;54.73;94640.59;5112403;28;21025;-59
2022/06/08 12:05:28;;;;;;;0.70;0.60;;;;;;;28.02;61.36;94647.31;5112637;28;20423;-58
2022/06/08 12:08:02;;;;;;;0.60;0.60;;;;;;;28.06;57.20;94645.34;5112477;28;20990;-59
2022/06/08 12:10:35;;;;;;;0.40;0.40;;;;;;;27.70;56.55;94615.50;5112626;28;20430;-59
2022/06/08 12:13:04;;;;;;;0.97;0.97;;;;;;;28.20;57.44;94650.75;5113034;28;20434;-59